createdAt,value
2023-04-18T00:00:13.852Z,2136.00
2023-04-18T00:01:13.887Z,2141.00
2023-04-18T00:02:13.957Z,2143.00
2023-04-18T00:03:14.134Z,2170.00
2023-04-18T00:04:14.460Z,2152.00
2023-04-18T00:05:14.210Z,2150.00
2023-04-18T00:06:14.076Z,2155.00
2023-04-18T00:07:14.066Z,2160.00
2023-04-18T00:08:14.033Z,2153.00
2023-04-18T00:09:14.178Z,2133.00
2023-04-18T00:10:14.104Z,2148.00
2023-04-18T00:11:14.131Z,2140.00
2023-04-18T00:12:14.162Z,2141.00
2023-04-18T00:13:14.186Z,2137.00
2023-04-18T00:14:14.385Z,2132.00
2023-04-18T00:15:14.244Z,2115.00
2023-04-18T00:16:14.368Z,2132.00
2023-04-18T00:17:14.342Z,2130.00
2023-04-18T00:18:14.336Z,2124.00
2023-04-18T00:19:14.376Z,2124.00
2023-04-18T00:20:14.383Z,2112.00
2023-04-18T00:21:14.437Z,2119.00
2023-04-18T00:22:14.443Z,2110.00
2023-04-18T00:23:14.486Z,2095.00
2023-04-18T00:24:14.719Z,2106.00
2023-04-18T00:25:14.522Z,2088.00
2023-04-18T00:26:14.565Z,2116.00
2023-04-18T00:27:14.597Z,2095.00
2023-04-18T00:28:14.620Z,2108.00
2023-04-18T00:29:14.624Z,2119.00
2023-04-18T00:30:14.667Z,2106.00
2023-04-18T00:31:14.701Z,2089.00
2023-04-18T00:32:14.733Z,2104.00
2023-04-18T00:33:14.743Z,2081.00
2023-04-18T00:34:15.042Z,2083.00
2023-04-18T00:35:14.794Z,2091.00
2023-04-18T00:36:14.827Z,2094.00
2023-04-18T00:37:14.848Z,2087.00
2023-04-18T00:38:14.899Z,2077.00
2023-04-18T00:39:14.924Z,2064.00
2023-04-18T00:40:14.982Z,2077.00
2023-04-18T00:41:14.951Z,2080.00
2023-04-18T00:42:14.993Z,2079.00
2023-04-18T00:43:15.036Z,2077.00
2023-04-18T00:44:15.924Z,2070.00
2023-04-18T00:45:15.083Z,2077.00
2023-04-18T00:46:15.143Z,2051.00
2023-04-18T00:47:15.109Z,2068.00
2023-04-18T00:48:15.171Z,2061.00
2023-04-18T00:49:15.171Z,2056.00
2023-04-18T00:50:15.215Z,2086.00
2023-04-18T00:51:15.227Z,2060.00
2023-04-18T00:52:15.239Z,2073.00
2023-04-18T00:53:15.273Z,2055.00
2023-04-18T00:54:15.615Z,2060.00
2023-04-18T00:55:15.308Z,2053.00
2023-04-18T00:56:15.359Z,2042.00
2023-04-18T00:57:15.419Z,2061.00
2023-04-18T00:58:15.418Z,2039.00
2023-04-18T00:59:15.449Z,2035.00
2023-04-18T01:00:15.455Z,2047.00
2023-04-18T01:01:15.533Z,2041.00
2023-04-18T01:02:15.610Z,2034.00
2023-04-18T01:03:15.691Z,2046.00
2023-04-18T01:04:15.965Z,2019.00
2023-04-18T01:05:15.636Z,2012.00
2023-04-18T01:06:15.664Z,1998.00
2023-04-18T01:07:15.656Z,2018.00
2023-04-18T01:08:15.701Z,1999.00
2023-04-18T01:09:15.716Z,1987.00
2023-04-18T01:10:15.788Z,1995.00
2023-04-18T01:11:15.767Z,2012.00
2023-04-18T01:12:15.821Z,1988.00
2023-04-18T01:13:15.868Z,1995.00
2023-04-18T01:14:15.877Z,1992.00
2023-04-18T01:15:15.894Z,1992.00
2023-04-18T01:16:15.969Z,2004.00
2023-04-18T01:17:15.991Z,2009.00
2023-04-18T01:18:16.001Z,2002.00
2023-04-18T01:19:16.023Z,1994.00
2023-04-18T01:20:16.083Z,1985.00
2023-04-18T01:21:16.149Z,1985.00
2023-04-18T01:22:16.128Z,1964.00
2023-04-18T01:23:16.157Z,1964.00
2023-04-18T01:24:16.436Z,1960.00
2023-04-18T01:25:16.222Z,1980.00
2023-04-18T01:26:16.270Z,1977.00
2023-04-18T01:27:16.309Z,1963.00
2023-04-18T01:28:16.316Z,1970.00
2023-04-18T01:29:16.387Z,1950.00
2023-04-18T01:30:16.383Z,1961.00
2023-04-18T01:31:16.446Z,1963.00
2023-04-18T01:32:16.528Z,1953.00
2023-04-18T01:33:16.493Z,1956.00
2023-04-18T01:34:16.499Z,1926.00
2023-04-18T01:35:16.524Z,1934.00
2023-04-18T01:36:16.570Z,1916.00
2023-04-18T01:37:16.622Z,1919.00
2023-04-18T01:38:16.629Z,1928.00
2023-04-18T01:39:16.637Z,1930.00
2023-04-18T01:40:16.668Z,1925.00
2023-04-18T01:41:16.718Z,1938.00
2023-04-18T01:42:16.765Z,1916.00
2023-04-18T01:43:16.794Z,1912.00
2023-04-18T01:44:16.828Z,1920.00
2023-04-18T01:45:16.848Z,1902.00
2023-04-18T01:46:16.918Z,1905.00
2023-04-18T01:47:16.937Z,1878.00
2023-04-18T01:48:16.956Z,1865.00
2023-04-18T01:49:17.002Z,1864.00
2023-04-18T01:50:17.035Z,1861.00
2023-04-18T01:51:17.111Z,1857.00
2023-04-18T01:52:17.071Z,1872.00
2023-04-18T01:53:17.104Z,1854.00
2023-04-18T01:54:17.153Z,1839.00
2023-04-18T01:55:17.157Z,1857.00
2023-04-18T01:56:17.180Z,1849.00
2023-04-18T01:57:17.254Z,1863.00
2023-04-18T01:58:17.248Z,1840.00
2023-04-18T01:59:17.287Z,1838.00
2023-04-18T02:00:17.341Z,1812.00
2023-04-18T02:01:17.350Z,1844.00
2023-04-18T02:02:17.384Z,1859.00
2023-04-18T02:03:17.672Z,1880.00
2023-04-18T02:04:17.578Z,1902.00
2023-04-18T02:05:17.477Z,1897.00
2023-04-18T02:06:17.486Z,1893.00
2023-04-18T02:07:17.533Z,1888.00
2023-04-18T02:08:17.551Z,1888.00
2023-04-18T02:09:17.583Z,1895.00
2023-04-18T02:10:17.616Z,1892.00
2023-04-18T02:11:17.634Z,1897.00
2023-04-18T02:12:17.631Z,1873.00
2023-04-18T02:13:17.644Z,1893.00
2023-04-18T02:14:17.637Z,1887.00
2023-04-18T02:15:17.665Z,1893.00
2023-04-18T02:16:18.330Z,1874.00
2023-04-18T02:17:17.698Z,1878.00
2023-04-18T02:18:17.667Z,1868.00
2023-04-18T02:19:17.681Z,1874.00
2023-04-18T02:20:17.688Z,1840.00
2023-04-18T02:21:17.679Z,1852.00
2023-04-18T02:22:17.660Z,1860.00
2023-04-18T02:23:17.679Z,1862.00
2023-04-18T02:24:17.699Z,1856.00
2023-04-18T02:25:17.689Z,1822.00
2023-04-18T02:26:17.712Z,1829.00
2023-04-18T02:27:17.755Z,1826.00
2023-04-18T02:28:17.842Z,1829.00
2023-04-18T02:29:17.821Z,1782.00
2023-04-18T02:30:17.866Z,1800.00
2023-04-18T02:31:18.008Z,1792.00
2023-04-18T02:32:18.001Z,1794.00
2023-04-18T02:33:18.060Z,1768.00
2023-04-18T02:34:18.141Z,1780.00
2023-04-18T02:35:18.205Z,1781.00
2023-04-18T02:36:18.256Z,1766.00
2023-04-18T02:37:18.308Z,1755.00
2023-04-18T02:38:18.333Z,1748.00
2023-04-18T02:39:18.411Z,1748.00
2023-04-18T02:40:18.473Z,1749.00
2023-04-18T02:41:18.574Z,1757.00
2023-04-18T02:42:18.606Z,1771.00
2023-04-18T02:43:18.728Z,1778.00
2023-04-18T02:44:18.681Z,1735.00
2023-04-18T02:45:18.772Z,1736.00
2023-04-18T02:46:18.858Z,1744.00
2023-04-18T02:47:18.877Z,1727.00
2023-04-18T02:48:18.925Z,1713.00
2023-04-18T02:49:18.967Z,1718.00
2023-04-18T02:50:18.993Z,1707.00
2023-04-18T02:51:19.079Z,1701.00
2023-04-18T02:52:19.189Z,1715.00
2023-04-18T02:53:19.155Z,1704.00
2023-04-18T02:54:19.197Z,1697.00
2023-04-18T02:55:19.259Z,1699.00
2023-04-18T02:56:19.306Z,1702.00
2023-04-18T02:57:19.335Z,1710.00
2023-04-18T02:58:19.383Z,1696.00
2023-04-18T02:59:19.407Z,1699.00
2023-04-18T03:00:19.455Z,1699.00
2023-04-18T03:01:19.522Z,1694.00
2023-04-18T03:02:19.619Z,1689.00
2023-04-18T03:03:19.717Z,1701.00
2023-04-18T03:04:19.659Z,1692.00
2023-04-18T03:05:19.625Z,1688.00
2023-04-18T03:06:19.685Z,1675.00
2023-04-18T03:07:19.734Z,1676.00
2023-04-18T03:08:19.782Z,1678.00
2023-04-18T03:09:19.783Z,1680.00
2023-04-18T03:10:19.828Z,1684.00
2023-04-18T03:11:19.857Z,1670.00
2023-04-18T03:12:19.907Z,1665.00
2023-04-18T03:13:19.933Z,1670.00
2023-04-18T03:14:19.984Z,1668.00
2023-04-18T03:15:19.992Z,1674.00
2023-04-18T03:16:20.069Z,1655.00
2023-04-18T03:17:20.083Z,1644.00
2023-04-18T03:18:20.081Z,1666.00
2023-04-18T03:19:20.103Z,1657.00
2023-04-18T03:20:20.137Z,1656.00
2023-04-18T03:21:20.159Z,1663.00
2023-04-18T03:22:20.244Z,1656.00
2023-04-18T03:23:20.240Z,1654.00
2023-04-18T03:24:20.252Z,1660.00
2023-04-18T03:25:20.314Z,1659.00
2023-04-18T03:26:20.351Z,1647.00
2023-04-18T03:27:20.381Z,1647.00
2023-04-18T03:28:20.373Z,1633.00
2023-04-18T03:29:20.422Z,1646.00
2023-04-18T03:30:20.475Z,1637.00
2023-04-18T03:31:20.552Z,1644.00
2023-04-18T03:32:20.532Z,1628.00
2023-04-18T03:33:20.567Z,1631.00
2023-04-18T03:34:20.540Z,1634.00
2023-04-18T03:35:20.591Z,1641.00
2023-04-18T03:36:20.610Z,1628.00
2023-04-18T03:37:20.656Z,1628.00
2023-04-18T03:38:20.653Z,1634.00
2023-04-18T03:39:20.683Z,1625.00
2023-04-18T03:40:20.702Z,1626.00
2023-04-18T03:41:20.717Z,1625.00
2023-04-18T03:42:20.759Z,1619.00
2023-04-18T03:43:20.790Z,1612.00
2023-04-18T03:44:20.762Z,1621.00
2023-04-18T03:45:20.803Z,1606.00
2023-04-18T03:46:20.814Z,1599.00
2023-04-18T03:47:20.887Z,1610.00
2023-04-18T03:48:20.863Z,1607.00
2023-04-18T03:49:20.876Z,1603.00
2023-04-18T03:50:20.911Z,1603.00
2023-04-18T03:51:20.917Z,1612.00
2023-04-18T03:52:21.332Z,1605.00
2023-04-18T03:53:21.267Z,1620.00
2023-04-18T03:54:20.983Z,1612.00
2023-04-18T03:55:21.002Z,1598.00
2023-04-18T03:56:21.003Z,1619.00
2023-04-18T03:57:20.994Z,1593.00
2023-04-18T03:58:22.570Z,1598.00
2023-04-18T03:59:21.014Z,1604.00
2023-04-18T04:00:21.038Z,1608.00
2023-04-18T04:01:21.050Z,1607.00
2023-04-18T04:02:21.171Z,1610.00
2023-04-18T04:03:21.126Z,1595.00
2023-04-18T04:04:21.159Z,1602.00
2023-04-18T04:05:21.072Z,1611.00
2023-04-18T04:06:21.093Z,1594.00
2023-04-18T04:07:21.100Z,1593.00
2023-04-18T04:08:21.092Z,1584.00
2023-04-18T04:09:21.120Z,1596.00
2023-04-18T04:10:21.127Z,1599.00
2023-04-18T04:11:21.116Z,1603.00
2023-04-18T04:12:21.137Z,1587.00
2023-04-18T04:13:21.183Z,1597.00
2023-04-18T04:14:21.155Z,1597.00
2023-04-18T04:15:21.187Z,1603.00
2023-04-18T04:16:21.252Z,1591.00
2023-04-18T04:17:21.196Z,1599.00
2023-04-18T04:18:21.216Z,1597.00
2023-04-18T04:19:21.208Z,1606.00
2023-04-18T04:20:21.194Z,1615.00
2023-04-18T04:21:21.318Z,1600.00
2023-04-18T04:22:21.233Z,1596.00
2023-04-18T04:23:21.253Z,1594.00
2023-04-18T04:24:21.220Z,1601.00
2023-04-18T04:25:21.257Z,1604.00
2023-04-18T04:26:21.236Z,1597.00
2023-04-18T04:27:21.286Z,1610.00
2023-04-18T04:28:21.279Z,1607.00
2023-04-18T04:29:21.294Z,1601.00
2023-04-18T04:30:21.300Z,1610.00
2023-04-18T04:31:21.324Z,1621.00
2023-04-18T04:32:21.279Z,1608.00
2023-04-18T04:33:21.334Z,1617.00
2023-04-18T04:34:21.300Z,1611.00
2023-04-18T04:35:21.324Z,1621.00
2023-04-18T04:36:21.336Z,1606.00
2023-04-18T04:37:21.336Z,1610.00
2023-04-18T04:38:21.345Z,1601.00
2023-04-18T04:39:21.350Z,1616.00
2023-04-18T04:40:21.334Z,1610.00
2023-04-18T04:41:21.376Z,1611.00
2023-04-18T04:42:21.379Z,1611.00
2023-04-18T04:43:21.389Z,1597.00
2023-04-18T04:44:21.453Z,1598.00
2023-04-18T04:45:21.391Z,1590.00
2023-04-18T04:46:21.460Z,1584.00
2023-04-18T04:47:21.451Z,1583.00
2023-04-18T04:48:21.409Z,1583.00
2023-04-18T04:49:21.408Z,1575.00
2023-04-18T04:50:21.476Z,1565.00
2023-04-18T04:51:21.457Z,1574.00
2023-04-18T04:52:21.495Z,1571.00
2023-04-18T04:53:21.478Z,1563.00
2023-04-18T04:54:21.528Z,1571.00
2023-04-18T04:55:21.478Z,1563.00
2023-04-18T04:56:21.475Z,1572.00
2023-04-18T04:57:21.481Z,1570.00
2023-04-18T04:58:21.552Z,1561.00
2023-04-18T04:59:21.535Z,1561.00
2023-04-18T05:00:21.525Z,1566.00
2023-04-18T05:01:28.606Z,1567.00
2023-04-18T05:02:21.622Z,1569.00
2023-04-18T05:03:21.654Z,1572.00
2023-04-18T05:04:21.657Z,1572.00
2023-04-18T05:05:21.547Z,1574.00
2023-04-18T05:06:21.530Z,1568.00
2023-04-18T05:07:21.533Z,1575.00
2023-04-18T05:08:21.525Z,1572.00
2023-04-18T05:09:21.523Z,1570.00
2023-04-18T05:10:21.512Z,1574.00
2023-04-18T05:11:21.502Z,1578.00
2023-04-18T05:12:21.496Z,1569.00
2023-04-18T05:13:21.491Z,1573.00
2023-04-18T05:14:21.466Z,1564.00
2023-04-18T05:15:21.499Z,1575.00
2023-04-18T05:16:21.520Z,1581.00
2023-04-18T05:17:21.574Z,1567.00
2023-04-18T05:18:21.455Z,1574.00
2023-04-18T05:19:21.438Z,1576.00
2023-04-18T05:20:21.486Z,1574.00
2023-04-18T05:21:21.433Z,1572.00
2023-04-18T05:22:21.437Z,1578.00
2023-04-18T05:23:21.418Z,1565.00
2023-04-18T05:24:21.421Z,1579.00
2023-04-18T05:25:21.414Z,1566.00
2023-04-18T05:26:21.386Z,1571.00
2023-04-18T05:27:21.424Z,1574.00
2023-04-18T05:28:21.405Z,1569.00
2023-04-18T05:29:21.373Z,1571.00
2023-04-18T05:30:21.401Z,1562.00
2023-04-18T05:31:21.441Z,1573.00
2023-04-18T05:32:21.399Z,1575.00
2023-04-18T05:33:21.407Z,1572.00
2023-04-18T05:34:21.335Z,1617.00
2023-04-18T05:35:21.349Z,1632.00
2023-04-18T05:36:21.329Z,1674.00
2023-04-18T05:37:21.329Z,1687.00
2023-04-18T05:38:21.404Z,1730.00
2023-04-18T05:39:21.299Z,1737.00
2023-04-18T05:40:21.310Z,1805.00
2023-04-18T05:41:21.363Z,1830.00
2023-04-18T05:42:21.316Z,1862.00
2023-04-18T05:43:21.282Z,1903.00
2023-04-18T05:44:21.570Z,1979.00
2023-04-18T05:45:21.297Z,2040.00
2023-04-18T05:46:28.282Z,2072.00
2023-04-18T05:47:21.404Z,2075.00
2023-04-18T05:48:21.228Z,2085.00
2023-04-18T05:49:21.220Z,2109.00
2023-04-18T05:50:21.290Z,2157.00
2023-04-18T05:51:21.244Z,2236.00
2023-04-18T05:52:21.232Z,2221.00
2023-04-18T05:53:21.441Z,2226.00
2023-04-18T05:54:21.196Z,2244.00
2023-04-18T05:55:21.206Z,2245.00
2023-04-18T05:56:21.221Z,2276.00
2023-04-18T05:57:21.196Z,2273.00
2023-04-18T05:58:21.444Z,2241.00
2023-04-18T05:59:21.180Z,2242.00
2023-04-18T06:00:21.194Z,2243.00
2023-04-18T06:01:21.206Z,2246.00
2023-04-18T06:02:21.403Z,2251.00
2023-04-18T06:03:21.281Z,2272.00
2023-04-18T06:04:21.614Z,2285.00
2023-04-18T06:05:21.423Z,2291.00
2023-04-18T06:06:21.124Z,2280.00
2023-04-18T06:07:21.141Z,2305.00
2023-04-18T06:08:21.152Z,2318.00
2023-04-18T06:09:21.250Z,2335.00
2023-04-18T06:10:21.238Z,2347.00
2023-04-18T06:11:21.297Z,2339.00
2023-04-18T06:12:21.330Z,2362.00
2023-04-18T06:13:21.501Z,2364.00
2023-04-18T06:14:21.385Z,2375.00
2023-04-18T06:15:21.427Z,2393.00
2023-04-18T06:16:21.512Z,2484.00
2023-04-18T06:17:21.552Z,2553.00
2023-04-18T06:18:21.573Z,2637.00
2023-04-18T06:19:21.993Z,2678.00
2023-04-18T06:20:21.669Z,2825.00
2023-04-18T06:21:21.701Z,2983.00
2023-04-18T06:22:21.751Z,3116.00
2023-04-18T06:23:21.829Z,3055.00
2023-04-18T06:24:21.873Z,3026.00
2023-04-18T06:25:21.910Z,2983.00
2023-04-18T06:26:22.004Z,2951.00
2023-04-18T06:27:31.029Z,2947.00
2023-04-18T06:28:23.028Z,2948.00
2023-04-18T06:29:21.987Z,2953.00
2023-04-18T06:30:22.227Z,2954.00
2023-04-18T06:31:22.033Z,2970.00
2023-04-18T06:32:22.007Z,2955.00
2023-04-18T06:33:21.946Z,2950.00
2023-04-18T06:34:21.956Z,2893.00
2023-04-18T06:35:21.939Z,2895.00
2023-04-18T06:36:21.939Z,2893.00
2023-04-18T06:37:21.968Z,2902.00
2023-04-18T06:38:22.072Z,2839.00
2023-04-18T06:39:22.471Z,2828.00
2023-04-18T06:40:22.147Z,2848.00
2023-04-18T06:41:22.125Z,2820.00
2023-04-18T06:42:22.654Z,2838.00
2023-04-18T06:43:22.127Z,2787.00
2023-04-18T06:44:22.145Z,2753.00
2023-04-18T06:45:22.157Z,2732.00
2023-04-18T06:46:22.519Z,2780.00
2023-04-18T06:47:22.309Z,2773.00
2023-04-18T06:48:22.126Z,2742.00
2023-04-18T06:49:26.503Z,2769.00
2023-04-18T06:50:22.158Z,2769.00
2023-04-18T06:51:22.113Z,2743.00
2023-04-18T06:52:22.096Z,2760.00
2023-04-18T06:53:22.083Z,2762.00
2023-04-18T06:54:22.121Z,2798.00
2023-04-18T06:55:22.975Z,2802.00
2023-04-18T06:56:22.136Z,2815.00
2023-04-18T06:57:22.088Z,2868.00
2023-04-18T06:58:22.053Z,2874.00
2023-04-18T06:59:22.062Z,2859.00
2023-04-18T07:00:22.062Z,2878.00
2023-04-18T07:01:22.073Z,2873.00
2023-04-18T07:02:22.077Z,2864.00
2023-04-18T07:03:22.140Z,2902.00
2023-04-18T07:04:22.181Z,2894.00
2023-04-18T07:05:21.998Z,2865.00
2023-04-18T07:06:22.017Z,2839.00
2023-04-18T07:07:21.998Z,2815.00
2023-04-18T07:08:22.034Z,2823.00
2023-04-18T07:09:22.451Z,2875.00
2023-04-18T07:10:22.036Z,2826.00
2023-04-18T07:11:22.047Z,2800.00
2023-04-18T07:12:21.956Z,2820.00
2023-04-18T07:13:21.963Z,2772.00
2023-04-18T07:14:21.957Z,2808.00
2023-04-18T07:15:21.947Z,2833.00
2023-04-18T07:16:22.072Z,2872.00
2023-04-18T07:17:21.971Z,2897.00
2023-04-18T07:18:34.330Z,2908.00
2023-04-18T07:19:22.916Z,2910.00
2023-04-18T07:20:21.898Z,2915.00
2023-04-18T07:21:21.890Z,2898.00
2023-04-18T07:22:21.890Z,2891.00
2023-04-18T07:23:21.905Z,2938.00
2023-04-18T07:24:21.860Z,2922.00
2023-04-18T07:25:21.877Z,2887.00
2023-04-18T07:26:21.861Z,2886.00
2023-04-18T07:27:21.850Z,2864.00
2023-04-18T07:28:21.823Z,2832.00
2023-04-18T07:29:21.852Z,2447.00
2023-04-18T07:30:21.913Z,2182.00
2023-04-18T07:31:21.939Z,2063.00
2023-04-18T07:32:21.972Z,2006.00
2023-04-18T07:33:21.977Z,2274.00
2023-04-18T07:34:23.024Z,2794.00
2023-04-18T07:35:22.079Z,3521.00
2023-04-18T07:36:22.095Z,3411.00
2023-04-18T07:37:22.155Z,3053.00
2023-04-18T07:38:22.167Z,2740.00
2023-04-18T07:39:22.527Z,2541.00
2023-04-18T07:40:22.258Z,2521.00
2023-04-18T07:41:22.320Z,2431.00
2023-04-18T07:42:22.335Z,2236.00
2023-04-18T07:43:22.416Z,2211.00
2023-04-18T07:44:22.386Z,2237.00
2023-04-18T07:45:22.409Z,2299.00
2023-04-18T07:46:22.536Z,2275.00
2023-04-18T07:47:22.644Z,2290.00
2023-04-18T07:48:22.548Z,2151.00
2023-04-18T07:49:22.496Z,2087.00
2023-04-18T07:50:22.520Z,1981.00
2023-04-18T07:51:22.574Z,1981.00
2023-04-18T07:52:22.591Z,2053.00
2023-04-18T07:53:22.593Z,2173.00
2023-04-18T07:54:22.629Z,2176.00
2023-04-18T07:55:22.713Z,2211.00
2023-04-18T07:56:22.702Z,2283.00
2023-04-18T07:57:22.710Z,2308.00
2023-04-18T07:58:22.726Z,2346.00
2023-04-18T07:59:22.865Z,2372.00
2023-04-18T08:00:22.871Z,2401.00
2023-04-18T08:01:22.880Z,2438.00
2023-04-18T08:02:22.994Z,2474.00
2023-04-18T08:03:23.136Z,2500.00
2023-04-18T08:04:23.250Z,2540.00
2023-04-18T08:05:22.979Z,2603.00
2023-04-18T08:06:23.025Z,2637.00
2023-04-18T08:07:23.055Z,2608.00
2023-04-18T08:08:23.101Z,2662.00
2023-04-18T08:09:23.148Z,2714.00
2023-04-18T08:10:23.918Z,2763.00
2023-04-18T08:11:23.114Z,2792.00
2023-04-18T08:12:23.153Z,2820.00
2023-04-18T08:13:23.166Z,2891.00
2023-04-18T08:14:23.150Z,2940.00
2023-04-18T08:15:23.276Z,2941.00
2023-04-18T08:16:23.293Z,2969.00
2023-04-18T08:17:23.286Z,3009.00
2023-04-18T08:18:23.344Z,3058.00
2023-04-18T08:19:23.455Z,3069.00
2023-04-18T08:20:23.480Z,3094.00
2023-04-18T08:21:23.485Z,3126.00
2023-04-18T08:22:23.506Z,3141.00
2023-04-18T08:23:23.545Z,3181.00
2023-04-18T08:24:23.586Z,3196.00
2023-04-18T08:25:23.586Z,3203.00
2023-04-18T08:26:23.615Z,3238.00
2023-04-18T08:27:23.681Z,3256.00
2023-04-18T08:28:23.662Z,3276.00
2023-04-18T08:29:23.997Z,3288.00
2023-04-18T08:30:23.690Z,3297.00
2023-04-18T08:31:23.722Z,3311.00
2023-04-18T08:32:23.738Z,3283.00
2023-04-18T08:33:23.739Z,3127.00
2023-04-18T08:34:24.016Z,2966.00
2023-04-18T08:35:23.756Z,2967.00
2023-04-18T08:36:23.806Z,3007.00
2023-04-18T08:37:23.831Z,2929.00
2023-04-18T08:38:23.877Z,2788.00
2023-04-18T08:39:25.315Z,3010.00
2023-04-18T08:40:24.027Z,3397.00
2023-04-18T08:41:24.013Z,4403.00
2023-04-18T08:42:24.032Z,4265.00
2023-04-18T08:43:24.079Z,4118.00
2023-04-18T08:44:24.132Z,4093.00
2023-04-18T08:45:24.170Z,3826.00
2023-04-18T08:46:24.220Z,3648.00
2023-04-18T08:47:24.294Z,3609.00
2023-04-18T08:48:24.296Z,3592.00
2023-04-18T08:49:24.528Z,3578.00
2023-04-18T08:50:24.556Z,3070.00
2023-04-18T08:51:24.405Z,2498.00
2023-04-18T08:52:24.468Z,2033.00
2023-04-18T08:53:24.495Z,1947.00
2023-04-18T08:54:27.257Z,1715.00
2023-04-18T08:55:24.531Z,1519.00
2023-04-18T08:56:24.518Z,1405.00
2023-04-18T08:57:24.518Z,1471.00
2023-04-18T08:58:24.533Z,1445.00
2023-04-18T08:59:24.558Z,1010.00
2023-04-18T09:00:24.519Z,936.00
2023-04-18T09:01:24.515Z,932.00
2023-04-18T09:02:24.543Z,852.00
2023-04-18T09:03:24.497Z,706.00
2023-04-18T09:04:24.482Z,744.00
2023-04-18T09:05:24.445Z,892.00
2023-04-18T09:06:25.536Z,933.00
2023-04-18T09:07:24.450Z,778.00
2023-04-18T09:08:24.563Z,773.00
2023-04-18T09:09:24.441Z,743.00
2023-04-18T09:10:24.587Z,883.00
2023-04-18T09:11:24.418Z,819.00
2023-04-18T09:12:24.466Z,880.00
2023-04-18T09:13:24.636Z,1030.00
2023-04-18T09:14:24.407Z,1097.00
2023-04-18T09:15:24.436Z,1176.00
2023-04-18T09:16:24.400Z,1175.00
2023-04-18T09:17:24.362Z,1264.00
2023-04-18T09:18:24.369Z,1342.00
2023-04-18T09:19:24.371Z,1659.00
2023-04-18T09:20:24.431Z,1644.00
2023-04-18T09:21:24.338Z,1686.00
2023-04-18T09:22:24.342Z,1826.00
2023-04-18T09:23:24.320Z,1905.00
2023-04-18T09:24:24.559Z,1767.00
2023-04-18T09:25:24.575Z,1943.00
2023-04-18T09:26:24.315Z,2033.00
2023-04-18T09:27:24.341Z,2105.00
2023-04-18T09:28:24.419Z,2132.00
2023-04-18T09:29:24.359Z,2178.00
2023-04-18T09:30:24.423Z,2166.00
2023-04-18T09:31:24.449Z,2261.00
2023-04-18T09:32:24.654Z,2300.00
2023-04-18T09:33:24.567Z,2324.00
2023-04-18T09:34:24.633Z,2350.00
2023-04-18T09:35:25.061Z,2279.00
2023-04-18T09:36:24.742Z,1688.00
2023-04-18T09:37:24.736Z,1284.00
2023-04-18T09:38:24.790Z,1178.00
2023-04-18T09:39:24.748Z,1298.00
2023-04-18T09:40:25.045Z,1385.00
2023-04-18T09:41:24.786Z,1552.00
2023-04-18T09:42:26.749Z,1651.00
2023-04-18T09:43:24.741Z,1831.00
2023-04-18T09:44:24.762Z,1871.00
2023-04-18T09:45:25.541Z,1997.00
2023-04-18T09:46:24.724Z,1791.00
2023-04-18T09:47:24.741Z,1528.00
2023-04-18T09:48:24.714Z,1415.00
2023-04-18T09:49:24.692Z,1424.00
2023-04-18T09:50:24.686Z,1495.00
2023-04-18T09:51:24.702Z,1597.00
2023-04-18T09:52:24.702Z,1738.00
2023-04-18T09:53:24.662Z,1861.00
2023-04-18T09:54:24.664Z,1993.00
2023-04-18T09:55:24.681Z,2078.00
2023-04-18T09:56:24.683Z,2140.00
2023-04-18T09:57:24.633Z,2188.00
2023-04-18T09:58:24.652Z,2231.00
2023-04-18T09:59:24.654Z,2279.00
2023-04-18T10:00:24.710Z,2333.00
2023-04-18T10:01:24.663Z,2370.00
2023-04-18T10:02:24.714Z,2410.00
2023-04-18T10:03:24.628Z,2443.00
2023-04-18T10:04:24.691Z,2494.00
2023-04-18T10:05:24.664Z,2510.00
2023-04-18T10:06:24.589Z,2523.00
2023-04-18T10:07:24.658Z,2577.00
2023-04-18T10:08:24.568Z,2591.00
2023-04-18T10:09:24.564Z,2526.00
2023-04-18T10:10:24.549Z,2572.00
2023-04-18T10:11:24.537Z,2597.00
2023-04-18T10:12:24.529Z,2609.00
2023-04-18T10:13:24.546Z,2594.00
2023-04-18T10:14:24.498Z,2587.00
2023-04-18T10:15:24.592Z,2620.00
2023-04-18T10:16:24.535Z,2681.00
2023-04-18T10:17:24.505Z,2650.00
2023-04-18T10:18:24.648Z,2659.00
2023-04-18T10:19:24.497Z,2349.00
2023-04-18T10:20:24.475Z,2479.00
2023-04-18T10:21:24.491Z,2594.00
2023-04-18T10:22:24.470Z,2626.00
2023-04-18T10:23:25.973Z,2610.00
2023-04-18T10:24:24.508Z,2618.00
2023-04-18T10:25:25.075Z,2604.00
2023-04-18T10:26:24.592Z,2604.00
2023-04-18T10:27:24.627Z,2613.00
2023-04-18T10:28:24.560Z,2632.00
2023-04-18T10:29:24.572Z,2629.00
2023-04-18T10:30:24.591Z,2645.00
2023-04-18T10:31:24.641Z,2649.00
2023-04-18T10:32:24.666Z,2672.00
2023-04-18T10:33:30.400Z,2710.00
2023-04-18T10:34:25.585Z,2712.00
2023-04-18T10:35:25.046Z,2724.00
2023-04-18T10:36:24.604Z,2728.00
2023-04-18T10:37:24.586Z,2814.00
2023-04-18T10:38:24.597Z,2937.00
2023-04-18T10:39:24.579Z,2989.00
2023-04-18T10:40:24.592Z,2952.00
2023-04-18T10:41:25.091Z,2894.00
2023-04-18T10:42:24.645Z,2779.00
2023-04-18T10:43:24.689Z,2614.00
2023-04-18T10:44:24.770Z,2682.00
2023-04-18T10:45:24.808Z,2685.00
2023-04-18T10:46:31.862Z,2709.00
2023-04-18T10:47:25.953Z,2712.00
2023-04-18T10:48:24.935Z,2311.00
2023-04-18T10:49:27.007Z,1616.00
2023-04-18T10:50:24.797Z,1272.00
2023-04-18T10:51:24.878Z,822.00
2023-04-18T10:52:24.795Z,634.00
2023-04-18T10:53:24.828Z,602.00
2023-04-18T10:54:24.811Z,502.00
2023-04-18T10:55:24.827Z,571.00
2023-04-18T10:56:25.580Z,610.00
2023-04-18T10:57:25.562Z,631.00
2023-04-18T10:58:24.766Z,701.00
2023-04-18T10:59:24.781Z,897.00
2023-04-18T11:00:24.780Z,910.00
2023-04-18T11:01:24.874Z,835.00
2023-04-18T11:02:24.880Z,1038.00
2023-04-18T11:03:24.834Z,1172.00
2023-04-18T11:04:25.622Z,1179.00
2023-04-18T11:05:24.847Z,1292.00
2023-04-18T11:06:25.109Z,1407.00
2023-04-18T11:07:24.716Z,1534.00
2023-04-18T11:08:24.707Z,1428.00
2023-04-18T11:09:24.706Z,841.00
2023-04-18T11:10:24.715Z,1357.00
2023-04-18T11:11:25.108Z,1378.00
2023-04-18T11:12:24.823Z,1558.00
2023-04-18T11:13:24.666Z,1627.00
2023-04-18T11:14:24.664Z,1690.00
2023-04-18T11:15:24.678Z,1720.00
2023-04-18T11:16:24.708Z,1716.00
2023-04-18T11:17:24.714Z,1740.00
2023-04-18T11:18:24.630Z,1766.00
2023-04-18T11:19:24.644Z,1775.00
2023-04-18T11:20:24.609Z,1791.00
2023-04-18T11:21:24.616Z,1839.00
2023-04-18T11:22:24.620Z,1866.00
2023-04-18T11:23:24.645Z,1857.00
2023-04-18T11:24:24.665Z,1867.00
2023-04-18T11:25:24.580Z,1845.00
2023-04-18T11:26:24.587Z,1859.00
2023-04-18T11:27:24.566Z,1868.00
2023-04-18T11:28:24.563Z,1915.00
2023-04-18T11:29:24.520Z,1900.00
2023-04-18T11:30:24.635Z,1931.00
2023-04-18T11:31:24.618Z,1991.00
2023-04-18T11:32:24.698Z,2019.00
2023-04-18T11:33:24.558Z,2022.00
2023-04-18T11:34:24.545Z,1912.00
2023-04-18T11:35:24.588Z,1699.00
2023-04-18T11:36:25.091Z,1457.00
2023-04-18T11:37:24.680Z,1428.00
2023-04-18T11:38:24.943Z,1587.00
2023-04-18T11:39:25.187Z,1655.00
2023-04-18T11:40:25.041Z,1736.00
2023-04-18T11:41:25.093Z,1778.00
2023-04-18T11:42:25.007Z,1788.00
2023-04-18T11:43:25.121Z,1794.00
2023-04-18T11:44:25.088Z,1793.00
2023-04-18T11:45:25.125Z,1755.00
2023-04-18T11:46:25.261Z,1760.00
2023-04-18T11:47:25.278Z,1764.00
2023-04-18T11:48:25.309Z,1759.00
2023-04-18T11:49:25.342Z,1767.00
2023-04-18T11:50:25.456Z,1749.00
2023-04-18T11:51:25.481Z,1706.00
2023-04-18T11:52:25.501Z,1680.00
2023-04-18T11:53:25.579Z,1681.00
2023-04-18T11:54:25.661Z,1674.00
2023-04-18T11:55:25.704Z,1624.00
2023-04-18T11:56:25.782Z,1659.00
2023-04-18T11:57:25.831Z,1680.00
2023-04-18T11:58:25.901Z,1611.00
2023-04-18T11:59:25.951Z,1582.00
2023-04-18T12:00:26.012Z,1585.00
2023-04-18T12:01:26.052Z,1525.00
2023-04-18T12:02:26.188Z,1605.00
2023-04-18T12:03:26.276Z,1611.00
2023-04-18T12:04:26.472Z,1551.00
2023-04-18T12:05:26.534Z,1558.00
2023-04-18T12:06:26.397Z,1609.00